Home > Products > Valid Products > TAF

000
FTPA31 PHFO 302100 AAA
TAFHNL
TAF AMD
PHNL 302106Z 3021/0124 17008KT P6SM FEW025 SCT040
     FM010200 22008KT P6SM FEW025 BKN050
     FM010500 05006KT P6SM FEW035 SCT050
     FM010900 35004KT P6SM FEW035=



000
FTPA31 PHFO 302100 AAA
TAFHNL
TAF AMD
PHNL 302106Z 3021/0124 17008KT P6SM FEW025 SCT040
     FM010200 22008KT P6SM FEW025 BKN050
     FM010500 05006KT P6SM FEW035 SCT050
     FM010900 35004KT P6SM FEW035=



000
FTPA31 PHFO 301700
TAFHNL
TAF
PHNL 301726Z 3018/0124 35005KT P6SM FEW030 SCT050
     FM302000 17008KT P6SM FEW025 SCT050
     FM010200 22008KT P6SM FEW025 BKN050
     FM010500 05006KT P6SM FEW035 SCT050
     FM010900 35004KT P6SM FEW035=



000
FTPA31 PHFO 301700
TAFHNL
TAF
PHNL 301726Z 3018/0124 35005KT P6SM FEW030 SCT050
     FM302000 17008KT P6SM FEW025 SCT050
     FM010200 22008KT P6SM FEW025 BKN050
     FM010500 05006KT P6SM FEW035 SCT050
     FM010900 35004KT P6SM FEW035=



000
FTPA31 PHFO 301400 AAA
TAFHNL
TAF AMD
PHNL 301435Z 3015/0118 02003KT P6SM FEW028 SCT050
     FM302000 17008KT P6SM FEW025 SCT050
     FM010200 06007KT P6SM SCT025 BKN050
     FM010600 06005KT P6SM FEW028 SCT050
     FM011000 35004KT P6SM FEW035=



000
FTPA31 PHFO 301100
TAFHNL
TAF
PHNL 301128Z 3012/0118 33005KT P6SM VCSH FEW028 SCT050
     FM302000 17008KT P6SM VCSH SCT025 BKN050
     FM010300 06007KT P6SM VCSH SCT025 BKN050
     FM010600 06005KT P6SM FEW028 SCT050
     FM011000 35004KT P6SM FEW035=



000
FTPA31 PHFO 301100
TAFHNL
TAF
PHNL 301128Z 3012/0118 33005KT P6SM VCSH FEW028 SCT050
     FM302000 17008KT P6SM VCSH SCT025 BKN050
     FM010300 06007KT P6SM VCSH SCT025 BKN050
     FM010600 06005KT P6SM FEW028 SCT050
     FM011000 35004KT P6SM FEW035=



000
FTPA31 PHFO 300900 AAA
TAFHNL
TAF AMD
PHNL 300906Z 3009/0112 33005KT P6SM VCSH FEW030 SCT050
     FM302000 16010KT P6SM VCSH SCT030 BKN045
     FM010500 06007KT P6SM FEW030 SCT050
     FM011000 35004KT P6SM FEW030 SCT050=



000
FTPA31 PHFO 300900 AAA
TAFHNL
TAF AMD
PHNL 300906Z 3009/0112 33005KT P6SM VCSH FEW030 SCT050
     FM302000 16010KT P6SM VCSH SCT030 BKN045
     FM010500 06007KT P6SM FEW030 SCT050
     FM011000 35004KT P6SM FEW030 SCT050=



000
FTPA31 PHFO 300500
TAFHNL
TAF
PHNL 300536Z 3006/0112 04005KT P6SM VCSH SCT030 SCT080 BKN140
     FM301000 33005KT P6SM FEW030 SCT050
     FM302000 16010KT P6SM VCSH SCT030 BKN045
     FM010500 06007KT P6SM FEW030 SCT050
     FM011000 35004KT P6SM FEW030 SCT050=



000
FTPA31 PHFO 300500
TAFHNL
TAF
PHNL 300536Z 3006/0112 04005KT P6SM VCSH SCT030 SCT080 BKN140
     FM301000 33005KT P6SM FEW030 SCT050
     FM302000 16010KT P6SM VCSH SCT030 BKN045
     FM010500 06007KT P6SM FEW030 SCT050
     FM011000 35004KT P6SM FEW030 SCT050=



000
FTPA31 PHFO 300300 AAB
TAFHNL
TAF AMD
PHNL 300341Z 3004/0106 VRB05KT P6SM VCSH FEW030 SCT050
     FM302000 14010KT P6SM VCSH SCT030 BKN045
     FM010500 06007KT P6SM VCSH FEW030 SCT050=



000
FTPA31 PHFO 300300 AAB
TAFHNL
TAF AMD
PHNL 300341Z 3004/0106 VRB05KT P6SM VCSH FEW030 SCT050
     FM302000 14010KT P6SM VCSH SCT030 BKN045
     FM010500 06007KT P6SM VCSH FEW030 SCT050=



000
FTPA31 PHFO 300200 AAA
TAFHNL
TAF AMD
PHNL 300217Z 3002/0106 13008KT P6SM VCSH FEW030 BKN050
      TEMPO 3002/3003 33008KT P6SM TSRA FEW025 BKN045CB
     FM300400 05007KT P6SM VCSH FEW030 SCT050
     FM300600 VRB05KT P6SM VCSH FEW030 SCT050
     FM302000 14010KT P6SM VCSH SCT030 BKN045
     FM010500 06007KT P6SM VCSH FEW030 SCT050=



000
FTPA31 PHFO 300200 AAA
TAFHNL
TAF AMD
PHNL 300217Z 3002/0106 13008KT P6SM VCSH FEW030 BKN050
      TEMPO 3002/3003 33008KT P6SM TSRA FEW025 BKN045CB
     FM300400 05007KT P6SM VCSH FEW030 SCT050
     FM300600 VRB05KT P6SM VCSH FEW030 SCT050
     FM302000 14010KT P6SM VCSH SCT030 BKN045
     FM010500 06007KT P6SM VCSH FEW030 SCT050=



000
FTPA31 PHFO 292300
TAFHNL
TAF
PHNL 292327Z 3000/0106 13008KT P6SM VCSH FEW030 BKN050
     FM300400 05007KT P6SM VCSH FEW030 SCT050
     FM300600 VRB05KT P6SM VCSH FEW030 SCT050
     FM302000 14010KT P6SM VCSH SCT030 BKN045
     FM010500 06007KT P6SM VCSH FEW030 SCT050=



000
FTPA31 PHFO 292300
TAFHNL
TAF
PHNL 292327Z 3000/0106 13008KT P6SM VCSH FEW030 BKN050
     FM300400 05007KT P6SM VCSH FEW030 SCT050
     FM300600 VRB05KT P6SM VCSH FEW030 SCT050
     FM302000 14010KT P6SM VCSH SCT030 BKN045
     FM010500 06007KT P6SM VCSH FEW030 SCT050=



000
FTPA31 PHFO 292100 AAA
TAFHNL
TAF AMD
PHNL 292105Z 2921/3024 13008KT P6SM VCSH FEW030 BKN050
     FM300400 05007KT P6SM FEW030 SCT050
     FM300900 02004KT P6SM FEW030 SCT050
     FM302000 14010KT P6SM SCT030 BKN045=



000
FTPA31 PHFO 292100 AAA
TAFHNL
TAF AMD
PHNL 292105Z 2921/3024 13008KT P6SM VCSH FEW030 BKN050
     FM300400 05007KT P6SM FEW030 SCT050
     FM300900 02004KT P6SM FEW030 SCT050
     FM302000 14010KT P6SM SCT030 BKN045=



000
FTPA31 PHFO 291700
TAFHNL
TAF
PHNL 291731Z 2918/3024 02005KT P6SM VCSH FEW030 SCT060 BKN080
     FM292000 13008KT P6SM VCSH FEW030 SCT050 BKN080
     FM300400 05007KT P6SM FEW030 SCT050
     FM300900 02004KT P6SM FEW030 SCT050
     FM302000 14010KT P6SM SCT030 BKN045=



000
FTPA31 PHFO 291500 AAA
TAFHNL
TAF AMD
PHNL 291506Z 2915/3018 02004KT P6SM FEW030 SCT060 BKN090
     FM292000 10008KT P6SM VCSH FEW030 SCT050 BKN080
     FM300400 05007KT P6SM FEW030 SCT050
     FM300900 02004KT P6SM FEW030 SCT050=



000
FTPA31 PHFO 291500 AAA
TAFHNL
TAF AMD
PHNL 291506Z 2915/3018 02004KT P6SM FEW030 SCT060 BKN090
     FM292000 10008KT P6SM VCSH FEW030 SCT050 BKN080
     FM300400 05007KT P6SM FEW030 SCT050
     FM300900 02004KT P6SM FEW030 SCT050=



000
FTPA31 PHFO 291100
TAFHNL
TAF
PHNL 291130Z 2912/3018 02004KT P6SM SCT030 BKN060
     FM292000 10008KT P6SM VCSH FEW030 SCT050 BKN080
     FM300400 05007KT P6SM FEW030 SCT050
     FM300900 02004KT P6SM FEW030 SCT050=



000
FTPA31 PHFO 291100
TAFHNL
TAF
PHNL 291130Z 2912/3018 02004KT P6SM SCT030 BKN060
     FM292000 10008KT P6SM VCSH FEW030 SCT050 BKN080
     FM300400 05007KT P6SM FEW030 SCT050
     FM300900 02004KT P6SM FEW030 SCT050=



000
FTPA31 PHFO 290900 AAA
TAFHNL
TAF AMD
PHNL 290913Z 2909/3012 02004KT P6SM SCT030 BKN060
     FM292000 10008KT P6SM FEW030 SCT050
     FM300400 05007KT P6SM FEW030 SCT050=



000
FTPA31 PHFO 290900 AAA
TAFHNL
TAF AMD
PHNL 290913Z 2909/3012 02004KT P6SM SCT030 BKN060
     FM292000 10008KT P6SM FEW030 SCT050
     FM300400 05007KT P6SM FEW030 SCT050=



000
FTPA31 PHFO 290500
TAFHNL
TAF
PHNL 290533Z 2906/3012 05007KT P6SM SCT030 BKN060
     FM291100 02004KT P6SM FEW030 BKN060
     FM292000 10008KT P6SM FEW030 SCT050
     FM300400 05007KT P6SM FEW030 SCT050=



000
FTPA31 PHFO 290500
TAFHNL
TAF
PHNL 290533Z 2906/3012 05007KT P6SM SCT030 BKN060
     FM291100 02004KT P6SM FEW030 BKN060
     FM292000 10008KT P6SM FEW030 SCT050
     FM300400 05007KT P6SM FEW030 SCT050=



000
FTPA31 PHFO 290200 RRA
TAFHNL
TAF
PHNL 290235Z 2903/3006 07010KT P6SM SCT040 BKN070
      TEMPO 2903/2905 07014G20KT -SHRA BKN030 OVC050
     FM290900 05004KT P6SM SCT035 BKN060
     FM292100 07012KT P6SM FEW035 SCT060=



000
FTPA31 PHFO 290200 RRA
TAFHNL
TAF
PHNL 290235Z 2903/3006 07010KT P6SM SCT040 BKN070
      TEMPO 2903/2905 07014G20KT -SHRA BKN030 OVC050
     FM290900 05004KT P6SM SCT035 BKN060
     FM292100 07012KT P6SM FEW035 SCT060=



000
FTPA31 PHFO 290100 AAB
TAFHNL
TAF AMD
PHNL 290140Z 2902/3006 07012G20KT P6SM SCT035 BKN070
      TEMPO 2902/2904 -SHRA BKN025 OVC050
     FM290600 07006KT P6SM FEW030 SCT060
     FM292100 07012KT P6SM FEW030 SCT060=



000
FTPA31 PHFO 290100 AAB
TAFHNL
TAF AMD
PHNL 290140Z 2902/3006 07012G20KT P6SM SCT035 BKN070
      TEMPO 2902/2904 -SHRA BKN025 OVC050
     FM290600 07006KT P6SM FEW030 SCT060
     FM292100 07012KT P6SM FEW030 SCT060=



000
FTPA31 PHFO 282300 AAA
TAFHNL
TAF AMD
PHNL 282347Z 2900/3006 07015G21KT P6SM SCT035 BKN070
      TEMPO 2900/2902 07009KT 3SM SHRA SCT025 BKN050
     FM290400 06012KT P6SM SCT030 BKN060
     FM290800 07006KT P6SM FEW025 SCT050
     FM292100 08012KT P6SM FEW030 SCT060=



000
FTPA31 PHFO 282300 AAA
TAFHNL
TAF AMD
PHNL 282347Z 2900/3006 07015G21KT P6SM SCT035 BKN070
      TEMPO 2900/2902 07009KT 3SM SHRA SCT025 BKN050
     FM290400 06012KT P6SM SCT030 BKN060
     FM290800 07006KT P6SM FEW025 SCT050
     FM292100 08012KT P6SM FEW030 SCT060=



000
FTPA31 PHFO 282300
TAFHNL
TAF
PHNL 282321Z 2900/3006 07015G21KT P6SM SCT030 BKN060
     FM290600 06009KT P6SM FEW025 SCT050
     FM300000 08012KT P6SM FEW030 SCT060=



000
FTPA31 PHFO 282300
TAFHNL
TAF
PHNL 282321Z 2900/3006 07015G21KT P6SM SCT030 BKN060
     FM290600 06009KT P6SM FEW025 SCT050
     FM300000 08012KT P6SM FEW030 SCT060=



000
FTPA31 PHFO 282200 AAB
TAFHNL
TAF AMD
PHNL 282201Z 2822/2924 07012G18KT P6SM SCT035 BKN060
     FM290600 06008KT P6SM FEW025 SCT050=



000
FTPA31 PHFO 282200 AAB
TAFHNL
TAF AMD
PHNL 282201Z 2822/2924 07012G18KT P6SM SCT035 BKN060
     FM290600 06008KT P6SM FEW025 SCT050=



000
FTPA31 PHFO 282000 RRA
TAFHNL
TAF AMD
PHNL 282031Z 2820/2924 07012G18KT P6SM SCT035 BKN060
      TEMPO 2821/2823 VRB03KT 6SM -SHRA BKN030 OVC050
     FM290600 06008KT P6SM FEW025 SCT050=



000
FTPA31 PHFO 282000 RRA
TAFHNL
TAF AMD
PHNL 282031Z 2820/2924 07012G18KT P6SM SCT035 BKN060
      TEMPO 2821/2823 VRB03KT 6SM -SHRA BKN030 OVC050
     FM290600 06008KT P6SM FEW025 SCT050=



000
FTPA31 PHFO 281900 AAA
TAFHNL
TAF AMD
PHNL 281938Z 2820/2924 07012G18KT P6SM SCT030 BKN060
      TEMPO 2820/2821 3SM SHRA BKN025 OVC050
     FM290600 06008KT P6SM FEW025 SCT050=



000
FTPA31 PHFO 281900 AAA
TAFHNL
TAF AMD
PHNL 281938Z 2820/2924 07012G18KT P6SM SCT030 BKN060
      TEMPO 2820/2821 3SM SHRA BKN025 OVC050
     FM290600 06008KT P6SM FEW025 SCT050=



000
FTPA31 PHFO 281700
TAFHNL
TAF
PHNL 281721Z 2818/2924 05006KT P6SM FEW030 SCT050
     FM282100 07012G18KT P6SM SCT025 SCT050
     FM290600 06008KT P6SM FEW025 SCT050=



000
FTPA31 PHFO 281700
TAFHNL
TAF
PHNL 281721Z 2818/2924 05006KT P6SM FEW030 SCT050
     FM282100 07012G18KT P6SM SCT025 SCT050
     FM290600 06008KT P6SM FEW025 SCT050=



000
FTPA31 PHFO 281400 AAA
TAFHNL
TAF AMD
PHNL 281458Z 2815/2918 05008KT P6SM FEW030 SCT050
     FM282000 07012G18KT P6SM SCT025 SCT050
     FM290500 06008KT P6SM FEW025 SCT050=



000
FTPA31 PHFO 281100
TAFHNL
TAF
PHNL 281126Z 2812/2918 05008KT P6SM FEW025 SCT050
     FM282000 07012G18KT P6SM SCT025 SCT050
     FM290500 06008KT P6SM FEW025 SCT050=



000
FTPA31 PHFO 281100
TAFHNL
TAF
PHNL 281126Z 2812/2918 05008KT P6SM FEW025 SCT050
     FM282000 07012G18KT P6SM SCT025 SCT050
     FM290500 06008KT P6SM FEW025 SCT050=



000
FTPA31 PHFO 280900 AAA
TAFHNL
TAF AMD
PHNL 280907Z 2809/2912 05008KT P6SM FEW025 SCT050
     FM282000 07012G18KT P6SM SCT025 SCT050
     FM290500 06008KT P6SM VCSH SCT025 BKN050=



000
FTPA31 PHFO 280900 AAA
TAFHNL
TAF AMD
PHNL 280907Z 2809/2912 05008KT P6SM FEW025 SCT050
     FM282000 07012G18KT P6SM SCT025 SCT050
     FM290500 06008KT P6SM VCSH SCT025 BKN050=



000
FTPA31 PHFO 280500
TAFHNL
TAF
PHNL 280539Z 2806/2912 04006KT P6SM FEW025 SCT050
     FM282000 07012G18KT P6SM SCT025 SCT050
     FM290500 06008KT P6SM VCSH SCT025 BKN050=



000
FTPA31 PHFO 280500
TAFHNL
TAF
PHNL 280539Z 2806/2912 04006KT P6SM FEW025 SCT050
     FM282000 07012G18KT P6SM SCT025 SCT050
     FM290500 06008KT P6SM VCSH SCT025 BKN050=



000
FTPA31 PHFO 280200 AAA
TAFHNL
TAF AMD
PHNL 280254Z 2803/2906 04010G15KT P6SM VCSH SCT025 BKN050
     FM280500 07008KT P6SM SCT025 SCT050
     FM282000 06012G20KT P6SM SCT025 SCT050
     FM290500 06008KT P6SM VCSH SCT025 BKN050=



000
FTPA31 PHFO 280200 AAA
TAFHNL
TAF AMD
PHNL 280254Z 2803/2906 04010G15KT P6SM VCSH SCT025 BKN050
     FM280500 07008KT P6SM SCT025 SCT050
     FM282000 06012G20KT P6SM SCT025 SCT050
     FM290500 06008KT P6SM VCSH SCT025 BKN050=



000
FTPA31 PHFO 272300
TAFHNL
TAF
PHNL 272330Z 2800/2906 06014G20KT P6SM VCSH SCT025 BKN050
     FM280500 07008KT P6SM SCT025 SCT050
     FM282000 06012G20KT P6SM SCT025 SCT050
     FM290500 06008KT P6SM VCSH SCT025 BKN050=



000
FTPA31 PHFO 272300
TAFHNL
TAF
PHNL 272330Z 2800/2906 06014G20KT P6SM VCSH SCT025 BKN050
     FM280500 07008KT P6SM SCT025 SCT050
     FM282000 06012G20KT P6SM SCT025 SCT050
     FM290500 06008KT P6SM VCSH SCT025 BKN050=



    US Dept of Commerce
    National Oceanic and Atmospheric Administration
    National Weather Service
    1325 East West Highway
    Silver Spring, MD 20910
    Page Author: NWS Internet Services Team
Disclaimer
Information Quality
Credits
Glossary
Privacy Policy
Freedom of Information Act (FOIA)
About Us
Career Opportunities